Vojens, Denmark
Current Conditions -  °F | °C
As of 5:20 PM on Friday 21 Nov 2014 (Local Time) from EKSP Reporting Station
Light Fog Light Fog  
Wind Chill: 34°   Ceiling: 2900
Heat Index: 34°   Visibility: 6mi
Dew Point: 32°   Wind: 0mph
Humidity: 93%   Direction: NA
Pressure: 30.27"   Gusts: NA
Location:  55.25°N, 9.31°E
Report Text: EKSP 211620Z 00000KT 9999 MIFG FEW017 BKN029 01/00 Q1025
Loading
Personal Weather Stations






























Interactive Weather Map New forecast layout! Learn more

10-Day Weather Forecast

Advertisements
Track Severe Weather on mobile